sensor_id;sensor_type;location;lat;lon;timestamp;pressure;altitude;pressure_sealevel;temperature;humidity
68399;BME280;56258;52.196;13.868;2022-12-07T00:03:37;100854.72;;;22.07;34.84
68399;BME280;56258;52.196;13.868;2022-12-07T00:06:05;100844.31;;;22.11;34.50
68399;BME280;56258;52.196;13.868;2022-12-07T00:08:33;100837.91;;;22.12;34.83
68399;BME280;56258;52.196;13.868;2022-12-07T00:11:15;100837.75;;;22.20;34.58
68399;BME280;56258;52.196;13.868;2022-12-07T00:13:43;100847.75;;;22.20;35.13
68399;BME280;56258;52.196;13.868;2022-12-07T00:16:15;100844.91;;;22.28;35.01
68399;BME280;56258;52.196;13.868;2022-12-07T00:18:42;100856.38;;;22.30;34.66
68399;BME280;56258;52.196;13.868;2022-12-07T00:21:18;100857.31;;;22.16;34.65
68399;BME280;56258;52.196;13.868;2022-12-07T00:23:46;100849.69;;;22.26;34.90
68399;BME280;56258;52.196;13.868;2022-12-07T00:26:28;100854.19;;;22.19;34.65
68399;BME280;56258;52.196;13.868;2022-12-07T00:28:57;100852.19;;;22.27;34.47
68399;BME280;56258;52.196;13.868;2022-12-07T00:31:26;100849.53;;;22.34;34.33
68399;BME280;56258;52.196;13.868;2022-12-07T00:33:53;100850.97;;;22.30;34.93
68399;BME280;56258;52.196;13.868;2022-12-07T00:36:22;100854.69;;;22.29;35.27
68399;BME280;56258;52.196;13.868;2022-12-07T00:38:54;100846.50;;;22.22;35.10
68399;BME280;56258;52.196;13.868;2022-12-07T00:41:23;100847.00;;;22.32;34.51
68399;BME280;56258;52.196;13.868;2022-12-07T00:43:50;100851.22;;;22.35;34.63
68399;BME280;56258;52.196;13.868;2022-12-07T00:46:19;100849.78;;;22.39;35.05
68399;BME280;56258;52.196;13.868;2022-12-07T00:48:47;100848.94;;;22.38;35.17
68399;BME280;56258;52.196;13.868;2022-12-07T00:51:15;100845.00;;;22.41;34.77
68399;BME280;56258;52.196;13.868;2022-12-07T00:53:42;100843.75;;;22.43;34.57
68399;BME280;56258;52.196;13.868;2022-12-07T00:56:17;100850.72;;;22.53;34.76
68399;BME280;56258;52.196;13.868;2022-12-07T00:58:58;100846.09;;;22.47;34.32
68399;BME280;56258;52.196;13.868;2022-12-07T01:01:28;100845.13;;;22.33;34.38
68399;BME280;56258;52.196;13.868;2022-12-07T01:03:55;100833.34;;;22.12;34.53
68399;BME280;56258;52.196;13.868;2022-12-07T01:06:24;100843.63;;;22.02;35.21
68399;BME280;56258;52.196;13.868;2022-12-07T01:08:51;100840.13;;;21.87;35.25
68399;BME280;56258;52.196;13.868;2022-12-07T01:11:20;100847.91;;;21.75;34.82
68399;BME280;56258;52.196;13.868;2022-12-07T01:13:49;100843.84;;;21.65;35.52
68399;BME280;56258;52.196;13.868;2022-12-07T01:16:17;100838.78;;;21.55;35.75
68399;BME280;56258;52.196;13.868;2022-12-07T01:18:49;100832.63;;;21.46;35.27
68399;BME280;56258;52.196;13.868;2022-12-07T01:21:24;100841.06;;;21.37;35.89
68399;BME280;56258;52.196;13.868;2022-12-07T01:23:52;100844.69;;;21.29;35.96
68399;BME280;56258;52.196;13.868;2022-12-07T01:26:22;100829.22;;;21.23;35.80
68399;BME280;56258;52.196;13.868;2022-12-07T01:28:50;100833.50;;;21.17;35.82
68399;BME280;56258;52.196;13.868;2022-12-07T01:31:20;100835.75;;;21.14;36.37
68399;BME280;56258;52.196;13.868;2022-12-07T01:33:51;100832.13;;;21.07;36.06
68399;BME280;56258;52.196;13.868;2022-12-07T01:36:24;100831.00;;;21.01;35.97
68399;BME280;56258;52.196;13.868;2022-12-07T01:38:54;100830.38;;;20.99;35.90
68399;BME280;56258;52.196;13.868;2022-12-07T01:41:25;100827.47;;;21.01;36.25
68399;BME280;56258;52.196;13.868;2022-12-07T01:44:13;100826.19;;;20.96;36.05
68399;BME280;56258;52.196;13.868;2022-12-07T01:46:41;100823.84;;;20.93;35.76
68399;BME280;56258;52.196;13.868;2022-12-07T01:49:44;100811.00;;;20.95;36.17
68399;BME280;56258;52.196;13.868;2022-12-07T01:52:15;100809.28;;;20.94;35.93
68399;BME280;56258;52.196;13.868;2022-12-07T01:54:46;100802.41;;;20.92;36.06
68399;BME280;56258;52.196;13.868;2022-12-07T01:57:15;100808.66;;;20.92;35.81
68399;BME280;56258;52.196;13.868;2022-12-07T01:59:43;100801.66;;;20.83;35.79
68399;BME280;56258;52.196;13.868;2022-12-07T02:02:20;100808.09;;;20.82;36.60
68399;BME280;56258;52.196;13.868;2022-12-07T02:04:47;100801.00;;;20.81;36.18
68399;BME280;56258;52.196;13.868;2022-12-07T02:07:14;100790.34;;;20.73;36.15
68399;BME280;56258;52.196;13.868;2022-12-07T02:09:41;100801.00;;;20.81;36.02
68399;BME280;56258;52.196;13.868;2022-12-07T02:12:08;100800.56;;;20.78;36.59
68399;BME280;56258;52.196;13.868;2022-12-07T02:14:34;100789.31;;;20.74;35.77
68399;BME280;56258;52.196;13.868;2022-12-07T02:17:36;100781.00;;;20.76;36.61
68399;BME280;56258;52.196;13.868;2022-12-07T02:20:23;100787.97;;;20.70;36.01
68399;BME280;56258;52.196;13.868;2022-12-07T02:29:01;100777.63;;;20.59;36.43
68399;BME280;56258;52.196;13.868;2022-12-07T02:31:34;100769.66;;;20.51;36.56
68399;BME280;56258;52.196;13.868;2022-12-07T02:34:39;100772.34;;;20.51;36.48
68399;BME280;56258;52.196;13.868;2022-12-07T02:40:21;100779.97;;;20.47;36.75
68399;BME280;56258;52.196;13.868;2022-12-07T02:42:53;100776.81;;;20.44;36.81
68399;BME280;56258;52.196;13.868;2022-12-07T02:45:22;100766.19;;;20.42;36.29
68399;BME280;56258;52.196;13.868;2022-12-07T02:47:53;100763.66;;;20.40;36.42
68399;BME280;56258;52.196;13.868;2022-12-07T02:50:22;100761.34;;;20.37;36.68
68399;BME280;56258;52.196;13.868;2022-12-07T02:52:49;100760.66;;;20.35;36.66
68399;BME280;56258;52.196;13.868;2022-12-07T02:55:17;100761.69;;;20.34;36.32
68399;BME280;56258;52.196;13.868;2022-12-07T02:57:57;100757.78;;;20.37;37.07
68399;BME280;56258;52.196;13.868;2022-12-07T03:00:31;100753.97;;;20.31;36.88
68399;BME280;56258;52.196;13.868;2022-12-07T03:03:21;100743.63;;;20.35;36.03
68399;BME280;56258;52.196;13.868;2022-12-07T03:06:28;100751.53;;;20.36;36.30
68399;BME280;56258;52.196;13.868;2022-12-07T03:09:11;100749.22;;;20.33;36.22
68399;BME280;56258;52.196;13.868;2022-12-07T03:11:48;100741.75;;;20.35;36.62
68399;BME280;56258;52.196;13.868;2022-12-07T03:14:30;100745.47;;;20.34;36.41
68399;BME280;56258;52.196;13.868;2022-12-07T03:17:21;100742.59;;;20.36;36.24
68399;BME280;56258;52.196;13.868;2022-12-07T03:19:51;100736.34;;;20.35;36.12
68399;BME280;56258;52.196;13.868;2022-12-07T03:22:20;100743.28;;;20.38;36.68
68399;BME280;56258;52.196;13.868;2022-12-07T03:24:52;100738.41;;;20.33;35.99
68399;BME280;56258;52.196;13.868;2022-12-07T03:27:24;100727.91;;;20.38;36.13
68399;BME280;56258;52.196;13.868;2022-12-07T03:29:57;100731.09;;;20.42;36.08
68399;BME280;56258;52.196;13.868;2022-12-07T03:32:32;100716.81;;;20.33;36.39
68399;BME280;56258;52.196;13.868;2022-12-07T03:35:08;100719.81;;;20.38;36.34
68399;BME280;56258;52.196;13.868;2022-12-07T03:37:43;100701.63;;;20.32;36.18
68399;BME280;56258;52.196;13.868;2022-12-07T03:40:36;100708.72;;;20.33;36.71
68399;BME280;56258;52.196;13.868;2022-12-07T03:43:04;100705.75;;;20.28;36.68
68399;BME280;56258;52.196;13.868;2022-12-07T03:45:38;100697.25;;;20.31;36.07
68399;BME280;56258;52.196;13.868;2022-12-07T03:50:52;100704.06;;;20.27;36.59
68399;BME280;56258;52.196;13.868;2022-12-07T03:53:26;100707.41;;;20.29;36.12
68399;BME280;56258;52.196;13.868;2022-12-07T03:55:56;100680.50;;;20.21;36.50
68399;BME280;56258;52.196;13.868;2022-12-07T03:58:24;100676.78;;;20.22;36.65
68399;BME280;56258;52.196;13.868;2022-12-07T04:00:51;100683.13;;;20.29;36.11
68399;BME280;56258;52.196;13.868;2022-12-07T04:03:18;100677.91;;;20.28;36.33
68399;BME280;56258;52.196;13.868;2022-12-07T04:05:45;100670.16;;;20.25;36.50
68399;BME280;56258;52.196;13.868;2022-12-07T04:08:12;100660.59;;;20.22;36.02
68399;BME280;56258;52.196;13.868;2022-12-07T04:10:39;100654.91;;;20.17;36.45
68399;BME280;56258;52.196;13.868;2022-12-07T04:13:05;100658.91;;;20.21;36.75
68399;BME280;56258;52.196;13.868;2022-12-07T04:15:32;100656.41;;;20.20;36.35
68399;BME280;56258;52.196;13.868;2022-12-07T04:17:59;100651.38;;;20.17;36.06
68399;BME280;56258;52.196;13.868;2022-12-07T04:20:25;100651.84;;;20.20;36.05
68399;BME280;56258;52.196;13.868;2022-12-07T04:22:52;100650.56;;;20.16;36.30
68399;BME280;56258;52.196;13.868;2022-12-07T04:25:18;100647.66;;;20.18;36.30
68399;BME280;56258;52.196;13.868;2022-12-07T04:27:45;100644.97;;;20.18;36.26
68399;BME280;56258;52.196;13.868;2022-12-07T04:30:12;100635.38;;;20.15;36.39
68399;BME280;56258;52.196;13.868;2022-12-07T04:32:38;100647.03;;;20.16;36.71
68399;BME280;56258;52.196;13.868;2022-12-07T04:35:06;100642.25;;;20.18;36.41
68399;BME280;56258;52.196;13.868;2022-12-07T04:37:33;100629.16;;;20.15;36.44
68399;BME280;56258;52.196;13.868;2022-12-07T04:39:59;100619.34;;;20.14;36.52
68399;BME280;56258;52.196;13.868;2022-12-07T04:42:26;100623.38;;;20.18;36.35
68399;BME280;56258;52.196;13.868;2022-12-07T04:44:53;100623.75;;;20.15;36.19
68399;BME280;56258;52.196;13.868;2022-12-07T04:47:20;100616.28;;;20.17;36.69
68399;BME280;56258;52.196;13.868;2022-12-07T04:49:46;100609.22;;;20.16;36.29
68399;BME280;56258;52.196;13.868;2022-12-07T04:52:13;100621.69;;;20.17;36.18
68399;BME280;56258;52.196;13.868;2022-12-07T04:54:39;100615.28;;;20.18;36.30
68399;BME280;56258;52.196;13.868;2022-12-07T04:57:06;100617.31;;;20.16;36.38
68399;BME280;56258;52.196;13.868;2022-12-07T04:59:33;100611.09;;;20.15;36.57
68399;BME280;56258;52.196;13.868;2022-12-07T05:01:59;100601.88;;;20.09;36.48
68399;BME280;56258;52.196;13.868;2022-12-07T05:04:26;100602.31;;;20.13;36.76
68399;BME280;56258;52.196;13.868;2022-12-07T05:06:52;100594.91;;;20.15;36.28
68399;BME280;56258;52.196;13.868;2022-12-07T05:09:19;100610.72;;;20.18;35.99
68399;BME280;56258;52.196;13.868;2022-12-07T05:11:46;100608.19;;;20.17;36.20
68399;BME280;56258;52.196;13.868;2022-12-07T05:14:18;100601.97;;;20.16;36.43
68399;BME280;56258;52.196;13.868;2022-12-07T05:16:46;100594.50;;;20.18;35.98
68399;BME280;56258;52.196;13.868;2022-12-07T05:19:14;100585.38;;;20.19;36.13
68399;BME280;56258;52.196;13.868;2022-12-07T05:21:40;100587.16;;;20.12;36.38
68399;BME280;56258;52.196;13.868;2022-12-07T05:24:10;100588.66;;;20.15;36.38
68399;BME280;56258;52.196;13.868;2022-12-07T05:26:37;100588.81;;;20.13;36.52
68399;BME280;56258;52.196;13.868;2022-12-07T05:29:04;100589.66;;;20.14;36.36
68399;BME280;56258;52.196;13.868;2022-12-07T05:31:30;100590.50;;;20.14;36.19
68399;BME280;56258;52.196;13.868;2022-12-07T05:33:57;100584.84;;;20.09;36.47
68399;BME280;56258;52.196;13.868;2022-12-07T05:36:24;100581.69;;;20.05;36.16
68399;BME280;56258;52.196;13.868;2022-12-07T05:38:51;100575.47;;;20.05;36.81
68399;BME280;56258;52.196;13.868;2022-12-07T05:41:18;100586.91;;;20.07;36.05
68399;BME280;56258;52.196;13.868;2022-12-07T05:44:04;100574.44;;;20.06;36.12
68399;BME280;56258;52.196;13.868;2022-12-07T05:46:32;100578.16;;;20.05;36.25
68399;BME280;56258;52.196;13.868;2022-12-07T05:48:59;100573.50;;;19.99;36.65
68399;BME280;56258;52.196;13.868;2022-12-07T05:51:26;100580.84;;;20.05;36.42
68399;BME280;56258;52.196;13.868;2022-12-07T05:53:53;100570.31;;;20.10;36.39
68399;BME280;56258;52.196;13.868;2022-12-07T05:56:20;100566.97;;;20.08;36.50
68399;BME280;56258;52.196;13.868;2022-12-07T05:58:46;100571.59;;;20.14;36.37
68399;BME280;56258;52.196;13.868;2022-12-07T06:01:32;100566.78;;;20.09;36.10
68399;BME280;56258;52.196;13.868;2022-12-07T06:03:59;100569.94;;;20.13;36.21
68399;BME280;56258;52.196;13.868;2022-12-07T06:06:25;100569.47;;;20.09;35.91
68399;BME280;56258;52.196;13.868;2022-12-07T06:08:52;100553.09;;;20.11;36.42
68399;BME280;56258;52.196;13.868;2022-12-07T06:11:19;100562.03;;;20.11;36.14
68399;BME280;56258;52.196;13.868;2022-12-07T06:14:04;100554.50;;;20.07;36.21
68399;BME280;56258;52.196;13.868;2022-12-07T06:16:31;100561.19;;;20.11;36.36
68399;BME280;56258;52.196;13.868;2022-12-07T06:18:57;100554.31;;;20.08;36.55
68399;BME280;56258;52.196;13.868;2022-12-07T06:21:24;100543.91;;;20.05;35.93
68399;BME280;56258;52.196;13.868;2022-12-07T06:23:52;100549.00;;;20.00;36.61
68399;BME280;56258;52.196;13.868;2022-12-07T06:26:19;100565.13;;;20.08;35.75
68399;BME280;56258;52.196;13.868;2022-12-07T06:28:46;100549.31;;;20.05;36.49
68399;BME280;56258;52.196;13.868;2022-12-07T06:31:13;100547.81;;;20.03;36.35
68399;BME280;56258;52.196;13.868;2022-12-07T06:33:40;100549.94;;;20.07;36.17
68399;BME280;56258;52.196;13.868;2022-12-07T06:36:07;100543.81;;;19.99;36.20
68399;BME280;56258;52.196;13.868;2022-12-07T06:38:34;100541.84;;;20.07;36.05
68399;BME280;56258;52.196;13.868;2022-12-07T06:41:01;100542.44;;;20.03;36.20
68399;BME280;56258;52.196;13.868;2022-12-07T06:43:28;100540.38;;;20.05;36.42
68399;BME280;56258;52.196;13.868;2022-12-07T06:45:54;100524.00;;;20.06;36.02
68399;BME280;56258;52.196;13.868;2022-12-07T06:48:21;100524.06;;;20.13;36.47
68399;BME280;56258;52.196;13.868;2022-12-07T06:50:48;100511.53;;;20.05;36.65
68399;BME280;56258;52.196;13.868;2022-12-07T06:53:20;100525.69;;;20.29;36.55
68399;BME280;56258;52.196;13.868;2022-12-07T06:55:47;100524.41;;;20.25;36.29
68399;BME280;56258;52.196;13.868;2022-12-07T06:58:14;100525.69;;;20.29;37.00
68399;BME280;56258;52.196;13.868;2022-12-07T07:00:40;100518.25;;;20.31;36.57
68399;BME280;56258;52.196;13.868;2022-12-07T07:03:07;100523.44;;;20.32;36.41
68399;BME280;56258;52.196;13.868;2022-12-07T07:05:34;100519.72;;;20.33;36.87
68399;BME280;56258;52.196;13.868;2022-12-07T07:08:01;100525.13;;;20.33;36.72
68399;BME280;56258;52.196;13.868;2022-12-07T07:10:47;100514.50;;;20.32;36.50
68399;BME280;56258;52.196;13.868;2022-12-07T07:13:14;100521.38;;;20.34;36.57
68399;BME280;56258;52.196;13.868;2022-12-07T07:15:41;100527.19;;;20.31;36.44
68399;BME280;56258;52.196;13.868;2022-12-07T07:18:08;100527.00;;;20.33;36.90
68399;BME280;56258;52.196;13.868;2022-12-07T07:20:35;100523.44;;;20.32;36.63
68399;BME280;56258;52.196;13.868;2022-12-07T07:23:02;100515.47;;;20.24;37.15
68399;BME280;56258;52.196;13.868;2022-12-07T07:25:29;100515.25;;;20.26;36.83
68399;BME280;56258;52.196;13.868;2022-12-07T07:27:56;100510.00;;;20.18;37.20
68399;BME280;56258;52.196;13.868;2022-12-07T07:30:23;100512.69;;;20.18;36.91
68399;BME280;56258;52.196;13.868;2022-12-07T07:32:50;100521.44;;;20.20;36.76
68399;BME280;56258;52.196;13.868;2022-12-07T07:35:17;100521.06;;;20.23;36.61
68399;BME280;56258;52.196;13.868;2022-12-07T07:37:43;100515.13;;;20.13;36.93
68399;BME280;56258;52.196;13.868;2022-12-07T07:40:10;100515.41;;;20.18;36.79
68399;BME280;56258;52.196;13.868;2022-12-07T07:42:37;100511.38;;;20.14;36.72
68399;BME280;56258;52.196;13.868;2022-12-07T07:45:04;100513.72;;;20.17;36.75
68399;BME280;56258;52.196;13.868;2022-12-07T07:47:31;100504.81;;;20.16;36.49
68399;BME280;56258;52.196;13.868;2022-12-07T07:49:57;100513.94;;;20.15;36.68
68399;BME280;56258;52.196;13.868;2022-12-07T07:52:24;100502.28;;;20.15;36.55
68399;BME280;56258;52.196;13.868;2022-12-07T07:54:51;100509.53;;;20.14;36.77
68399;BME280;56258;52.196;13.868;2022-12-07T07:57:17;100518.09;;;20.18;36.74
68399;BME280;56258;52.196;13.868;2022-12-07T07:59:44;100519.97;;;20.17;36.55
68399;BME280;56258;52.196;13.868;2022-12-07T08:02:16;100518.28;;;20.16;36.48
68399;BME280;56258;52.196;13.868;2022-12-07T08:04:43;100513.94;;;20.15;36.21
68399;BME280;56258;52.196;13.868;2022-12-07T08:07:12;100530.13;;;20.15;36.87
68399;BME280;56258;52.196;13.868;2022-12-07T08:09:39;100523.03;;;20.14;36.40
68399;BME280;56258;52.196;13.868;2022-12-07T08:12:06;100521.34;;;20.13;36.70
68399;BME280;56258;52.196;13.868;2022-12-07T08:14:33;100530.28;;;20.14;36.21
68399;BME280;56258;52.196;13.868;2022-12-07T08:17:00;100520.50;;;20.13;36.59
68399;BME280;56258;52.196;13.868;2022-12-07T08:19:27;100508.88;;;20.12;36.63
68399;BME280;56258;52.196;13.868;2022-12-07T08:21:55;100511.97;;;20.09;36.49
68399;BME280;56258;52.196;13.868;2022-12-07T08:24:22;100510.75;;;20.11;36.42
68399;BME280;56258;52.196;13.868;2022-12-07T08:26:49;100516.78;;;20.14;36.34
68399;BME280;56258;52.196;13.868;2022-12-07T08:29:17;100520.31;;;20.14;36.51
68399;BME280;56258;52.196;13.868;2022-12-07T08:31:43;100512.63;;;20.11;36.21
68399;BME280;56258;52.196;13.868;2022-12-07T08:34:11;100512.22;;;20.14;35.99
68399;BME280;56258;52.196;13.868;2022-12-07T08:36:38;100523.50;;;20.18;36.57
68399;BME280;56258;52.196;13.868;2022-12-07T08:39:04;100522.47;;;20.19;36.55
68399;BME280;56258;52.196;13.868;2022-12-07T08:41:51;100528.41;;;20.14;36.50
68399;BME280;56258;52.196;13.868;2022-12-07T08:44:18;100523.31;;;20.19;36.63
68399;BME280;56258;52.196;13.868;2022-12-07T08:46:48;100517.81;;;20.27;36.40
68399;BME280;56258;52.196;13.868;2022-12-07T08:49:20;100526.53;;;20.29;36.13
68399;BME280;56258;52.196;13.868;2022-12-07T08:51:48;100523.25;;;20.34;36.16
68399;BME280;56258;52.196;13.868;2022-12-07T08:54:16;100517.47;;;20.37;36.25
68399;BME280;56258;52.196;13.868;2022-12-07T08:56:45;100521.19;;;20.36;36.28
68399;BME280;56258;52.196;13.868;2022-12-07T08:59:14;100528.25;;;20.37;35.84
68399;BME280;56258;52.196;13.868;2022-12-07T09:01:43;100521.66;;;20.39;36.05
68399;BME280;56258;52.196;13.868;2022-12-07T09:04:10;100523.06;;;20.35;36.09
68399;BME280;56258;52.196;13.868;2022-12-07T09:06:37;100527.34;;;20.45;35.80
68399;BME280;56258;52.196;13.868;2022-12-07T09:09:04;100529.41;;;20.43;35.58
68399;BME280;56258;52.196;13.868;2022-12-07T09:11:32;100529.22;;;20.44;35.55
68399;BME280;56258;52.196;13.868;2022-12-07T09:13:59;100528.00;;;20.47;35.43
68399;BME280;56258;52.196;13.868;2022-12-07T09:16:26;100538.44;;;20.50;36.00
68399;BME280;56258;52.196;13.868;2022-12-07T09:18:52;100534.03;;;20.70;35.29
68399;BME280;56258;52.196;13.868;2022-12-07T09:21:19;100524.22;;;20.84;35.18
68399;BME280;56258;52.196;13.868;2022-12-07T09:23:45;100531.53;;;20.90;34.61
68399;BME280;56258;52.196;13.868;2022-12-07T09:26:12;100532.38;;;20.90;34.70
68399;BME280;56258;52.196;13.868;2022-12-07T09:28:39;100523.13;;;20.78;34.77
68399;BME280;56258;52.196;13.868;2022-12-07T09:31:06;100529.88;;;20.67;34.76
68399;BME280;56258;52.196;13.868;2022-12-07T09:33:58;100527.75;;;20.63;35.69
68399;BME280;56258;52.196;13.868;2022-12-07T09:36:26;100538.16;;;20.66;35.44
68399;BME280;56258;52.196;13.868;2022-12-07T09:38:52;100527.59;;;20.71;35.15
68399;BME280;56258;52.196;13.868;2022-12-07T09:41:21;100527.88;;;20.76;35.36
68399;BME280;56258;52.196;13.868;2022-12-07T09:43:49;100532.56;;;20.67;35.17
68399;BME280;56258;52.196;13.868;2022-12-07T09:46:17;100541.00;;;20.58;35.26
68399;BME280;56258;52.196;13.868;2022-12-07T09:48:46;100532.00;;;20.51;35.47
68399;BME280;56258;52.196;13.868;2022-12-07T09:51:19;100533.41;;;20.47;35.62
68399;BME280;56258;52.196;13.868;2022-12-07T09:53:51;100538.78;;;20.47;35.69
68399;BME280;56258;52.196;13.868;2022-12-07T09:56:18;100535.72;;;20.50;35.60
68399;BME280;56258;52.196;13.868;2022-12-07T09:58:46;100520.03;;;20.60;35.32
68399;BME280;56258;52.196;13.868;2022-12-07T10:01:16;100527.38;;;20.66;35.03
68399;BME280;56258;52.196;13.868;2022-12-07T10:04:02;100534.31;;;20.54;35.39
68399;BME280;56258;52.196;13.868;2022-12-07T10:06:33;100538.03;;;20.53;35.09
68399;BME280;56258;52.196;13.868;2022-12-07T10:08:59;100537.66;;;20.56;35.26
68399;BME280;56258;52.196;13.868;2022-12-07T10:11:27;100544.84;;;20.49;35.79
68399;BME280;56258;52.196;13.868;2022-12-07T10:13:54;100539.44;;;20.49;35.18
68399;BME280;56258;52.196;13.868;2022-12-07T10:16:38;100542.59;;;20.52;35.58
68399;BME280;56258;52.196;13.868;2022-12-07T10:24:31;100547.81;;;20.75;34.75
68399;BME280;56258;52.196;13.868;2022-12-07T10:26:58;100553.28;;;20.82;34.72
68399;BME280;56258;52.196;13.868;2022-12-07T10:34:41;100549.50;;;20.76;35.05
68399;BME280;56258;52.196;13.868;2022-12-07T10:37:20;100551.38;;;20.76;34.93
68399;BME280;56258;52.196;13.868;2022-12-07T10:39:55;100555.84;;;20.68;34.99
68399;BME280;56258;52.196;13.868;2022-12-07T10:42:26;100544.53;;;20.58;35.52
68399;BME280;56258;52.196;13.868;2022-12-07T10:45:26;100548.19;;;20.51;35.53
68399;BME280;56258;52.196;13.868;2022-12-07T10:47:59;100554.16;;;20.46;35.68
68399;BME280;56258;52.196;13.868;2022-12-07T11:06:56;100553.94;;;20.26;36.13
68399;BME280;56258;52.196;13.868;2022-12-07T11:09:52;100557.13;;;20.36;35.87
68399;BME280;56258;52.196;13.868;2022-12-07T11:21:23;100559.00;;;20.36;35.40
68399;BME280;56258;52.196;13.868;2022-12-07T11:35:35;100550.81;;;20.44;35.32
68399;BME280;56258;52.196;13.868;2022-12-07T11:38:31;100545.13;;;20.39;35.53
68399;BME280;56258;52.196;13.868;2022-12-07T11:41:02;100545.69;;;20.34;35.93
68399;BME280;56258;52.196;13.868;2022-12-07T11:43:53;100541.31;;;20.33;35.57
68399;BME280;56258;52.196;13.868;2022-12-07T11:46:26;100555.00;;;20.32;35.82
68399;BME280;56258;52.196;13.868;2022-12-07T11:49:35;100543.63;;;20.36;35.44
68399;BME280;56258;52.196;13.868;2022-12-07T11:52:06;100541.59;;;20.38;35.65
68399;BME280;56258;52.196;13.868;2022-12-07T11:54:40;100549.50;;;20.40;35.52
68399;BME280;56258;52.196;13.868;2022-12-07T11:57:20;100554.56;;;20.43;35.74
68399;BME280;56258;52.196;13.868;2022-12-07T12:00:02;100550.81;;;20.44;35.74
68399;BME280;56258;52.196;13.868;2022-12-07T12:02:43;100542.91;;;20.43;35.72
68399;BME280;56258;52.196;13.868;2022-12-07T12:05:16;100547.47;;;20.42;35.70
68399;BME280;56258;52.196;13.868;2022-12-07T12:07:44;100545.41;;;20.44;35.33
68399;BME280;56258;52.196;13.868;2022-12-07T12:11:42;100541.88;;;20.44;35.31
68399;BME280;56258;52.196;13.868;2022-12-07T12:14:03;100541.22;;;20.42;35.59
68399;BME280;56258;52.196;13.868;2022-12-07T12:19:54;100542.63;;;20.37;35.66
68399;BME280;56258;52.196;13.868;2022-12-07T12:22:38;100536.00;;;20.40;35.47
68399;BME280;56258;52.196;13.868;2022-12-07T12:25:38;100539.06;;;20.37;35.91
68399;BME280;56258;52.196;13.868;2022-12-07T12:28:29;100529.69;;;20.33;36.04
68399;BME280;56258;52.196;13.868;2022-12-07T12:31:16;100540.88;;;20.30;35.94
68399;BME280;56258;52.196;13.868;2022-12-07T12:33:57;100533.31;;;20.25;35.60
68399;BME280;56258;52.196;13.868;2022-12-07T12:36:26;100533.81;;;20.29;35.74
68399;BME280;56258;52.196;13.868;2022-12-07T12:39:10;100526.94;;;20.26;35.73
68399;BME280;56258;52.196;13.868;2022-12-07T12:54:30;100519.00;;;20.25;35.95
68399;BME280;56258;52.196;13.868;2022-12-07T13:02:23;100520.75;;;20.32;35.91
68399;BME280;56258;52.196;13.868;2022-12-07T13:18:36;100514.69;;;20.45;35.46
68399;BME280;56258;52.196;13.868;2022-12-07T13:23:56;100509.47;;;20.44;35.50
68399;BME280;56258;52.196;13.868;2022-12-07T13:29:19;100508.44;;;20.45;35.89
68399;BME280;56258;52.196;13.868;2022-12-07T13:31:50;100516.75;;;20.43;35.54
68399;BME280;56258;52.196;13.868;2022-12-07T13:34:40;100510.50;;;20.43;35.54
68399;BME280;56258;52.196;13.868;2022-12-07T13:37:18;100507.13;;;20.40;36.11
68399;BME280;56258;52.196;13.868;2022-12-07T13:39:50;100505.47;;;20.39;35.71
68399;BME280;56258;52.196;13.868;2022-12-07T13:42:37;100503.97;;;20.37;35.55
68399;BME280;56258;52.196;13.868;2022-12-07T13:45:29;100502.13;;;20.37;35.79
68399;BME280;56258;52.196;13.868;2022-12-07T13:48:22;100497.25;;;20.26;35.84
68399;BME280;56258;52.196;13.868;2022-12-07T13:50:57;100508.28;;;20.31;36.05
68399;BME280;56258;52.196;13.868;2022-12-07T13:53:25;100503.47;;;20.27;36.22
68399;BME280;56258;52.196;13.868;2022-12-07T13:55:57;100500.94;;;20.25;36.05
68399;BME280;56258;52.196;13.868;2022-12-07T13:58:26;100497.88;;;20.28;35.71
68399;BME280;56258;52.196;13.868;2022-12-07T14:00:53;100495.09;;;20.22;35.87
68399;BME280;56258;52.196;13.868;2022-12-07T14:03:29;100490.97;;;20.26;35.77
68399;BME280;56258;52.196;13.868;2022-12-07T14:08:32;100501.31;;;20.22;35.83
68399;BME280;56258;52.196;13.868;2022-12-07T14:10:59;100492.13;;;20.17;35.70
68399;BME280;56258;52.196;13.868;2022-12-07T14:15:52;100502.34;;;20.21;36.15
68399;BME280;56258;52.196;13.868;2022-12-07T14:18:37;100504.41;;;20.19;35.58
68399;BME280;56258;52.196;13.868;2022-12-07T14:21:14;100505.88;;;20.22;36.09
68399;BME280;56258;52.196;13.868;2022-12-07T14:23:42;100502.53;;;20.20;35.98
68399;BME280;56258;52.196;13.868;2022-12-07T14:26:14;100490.28;;;20.17;36.16
68399;BME280;56258;52.196;13.868;2022-12-07T14:28:42;100502.34;;;20.21;36.15
68399;BME280;56258;52.196;13.868;2022-12-07T14:33:49;100498.19;;;20.19;36.11
68399;BME280;56258;52.196;13.868;2022-12-07T14:36:16;100506.47;;;20.17;36.31
68399;BME280;56258;52.196;13.868;2022-12-07T14:38:43;100495.38;;;20.12;35.88
68399;BME280;56258;52.196;13.868;2022-12-07T14:41:14;100504.13;;;20.14;36.67
68399;BME280;56258;52.196;13.868;2022-12-07T14:44:01;100501.81;;;20.11;36.16
68399;BME280;56258;52.196;13.868;2022-12-07T14:46:49;100508.44;;;20.08;36.33
68399;BME280;56258;52.196;13.868;2022-12-07T14:49:36;100498.66;;;20.07;36.08
68399;BME280;56258;52.196;13.868;2022-12-07T14:52:03;100514.28;;;20.12;36.31
68399;BME280;56258;52.196;13.868;2022-12-07T14:54:51;100501.81;;;20.11;35.80